sensor_id;sensor_type;location;lat;lon;timestamp;pressure;altitude;pressure_sealevel;temperature;humidity
31062;BME280;17724;53.546;9.974;2023-05-01T00:03:15;102019.28;;;10.68;57.83
31062;BME280;17724;53.546;9.974;2023-05-01T00:07:19;102010.19;;;10.67;58.13
31062;BME280;17724;53.546;9.974;2023-05-01T00:11:20;102006.75;;;10.72;57.93
31062;BME280;17724;53.546;9.974;2023-05-01T00:15:20;102005.00;;;10.59;58.54
31062;BME280;17724;53.546;9.974;2023-05-01T00:19:21;101997.13;;;10.44;59.82
31062;BME280;17724;53.546;9.974;2023-05-01T00:23:21;101985.44;;;10.67;59.22
31062;BME280;17724;53.546;9.974;2023-05-01T00:27:22;101982.81;;;10.72;58.50
31062;BME280;17724;53.546;9.974;2023-05-01T00:31:23;101989.03;;;10.49;59.41
31062;BME280;17724;53.546;9.974;2023-05-01T00:35:24;101967.56;;;10.58;59.41
31062;BME280;17724;53.546;9.974;2023-05-01T00:39:25;101978.53;;;10.40;60.29
31062;BME280;17724;53.546;9.974;2023-05-01T00:43:25;101981.25;;;10.46;60.74
31062;BME280;17724;53.546;9.974;2023-05-01T00:47:26;101977.16;;;10.49;60.24
31062;BME280;17724;53.546;9.974;2023-05-01T00:51:28;101969.50;;;9.89;62.29
31062;BME280;17724;53.546;9.974;2023-05-01T00:55:30;101964.44;;;10.11;62.96
31062;BME280;17724;53.546;9.974;2023-05-01T00:59:31;101958.16;;;10.04;62.81
31062;BME280;17724;53.546;9.974;2023-05-01T01:03:32;101952.53;;;10.17;62.74
31062;BME280;17724;53.546;9.974;2023-05-01T01:07:40;101961.44;;;9.94;63.74
31062;BME280;17724;53.546;9.974;2023-05-01T01:16:02;101948.38;;;9.90;63.36
31062;BME280;17724;53.546;9.974;2023-05-01T01:24:42;101948.84;;;10.05;64.17
31062;BME280;17724;53.546;9.974;2023-05-01T01:37:28;101942.31;;;9.56;70.13
31062;BME280;17724;53.546;9.974;2023-05-01T01:41:32;101933.63;;;9.34;71.02
31062;BME280;17724;53.546;9.974;2023-05-01T01:45:39;101934.38;;;9.16;71.75
31062;BME280;17724;53.546;9.974;2023-05-01T01:49:50;101928.97;;;9.34;71.41
31062;BME280;17724;53.546;9.974;2023-05-01T01:53:53;101937.50;;;9.26;72.51
31062;BME280;17724;53.546;9.974;2023-05-01T01:57:55;101930.66;;;9.04;74.83
31062;BME280;17724;53.546;9.974;2023-05-01T02:01:57;101931.66;;;9.09;74.98
31062;BME280;17724;53.546;9.974;2023-05-01T02:05:59;101928.72;;;9.11;75.44
31062;BME280;17724;53.546;9.974;2023-05-01T02:10:01;101921.78;;;9.33;72.81
31062;BME280;17724;53.546;9.974;2023-05-01T02:14:04;101920.88;;;9.15;73.43
31062;BME280;17724;53.546;9.974;2023-05-01T02:18:07;101916.75;;;9.30;72.35
31062;BME280;17724;53.546;9.974;2023-05-01T02:22:08;101917.47;;;9.19;71.33
31062;BME280;17724;53.546;9.974;2023-05-01T02:26:14;101916.25;;;9.08;71.77
31062;BME280;17724;53.546;9.974;2023-05-01T02:30:16;101903.03;;;9.30;71.24
31062;BME280;17724;53.546;9.974;2023-05-01T02:34:17;101898.38;;;9.31;71.44
31062;BME280;17724;53.546;9.974;2023-05-01T02:38:18;101889.91;;;9.32;70.76
31062;BME280;17724;53.546;9.974;2023-05-01T02:42:21;101884.78;;;9.18;70.02
31062;BME280;17724;53.546;9.974;2023-05-01T02:46:24;101888.75;;;8.90;70.26
31062;BME280;17724;53.546;9.974;2023-05-01T02:50:26;101883.59;;;9.00;69.88
31062;BME280;17724;53.546;9.974;2023-05-01T02:54:27;101877.13;;;9.20;69.10
31062;BME280;17724;53.546;9.974;2023-05-01T02:58:31;101877.03;;;9.01;69.10
31062;BME280;17724;53.546;9.974;2023-05-01T03:02:32;101877.44;;;8.73;70.94
31062;BME280;17724;53.546;9.974;2023-05-01T03:06:32;101869.94;;;8.62;71.03
31062;BME280;17724;53.546;9.974;2023-05-01T03:10:33;101870.56;;;8.57;69.86
31062;BME280;17724;53.546;9.974;2023-05-01T03:14:34;101871.53;;;8.76;68.85
31062;BME280;17724;53.546;9.974;2023-05-01T03:18:34;101841.00;;;8.66;67.25
31062;BME280;17724;53.546;9.974;2023-05-01T03:22:35;101859.28;;;8.79;67.42
31062;BME280;17724;53.546;9.974;2023-05-01T03:26:35;101858.31;;;8.60;68.32
31062;BME280;17724;53.546;9.974;2023-05-01T03:30:36;101845.56;;;8.41;68.22
31062;BME280;17724;53.546;9.974;2023-05-01T03:34:36;101850.19;;;8.33;69.17
31062;BME280;17724;53.546;9.974;2023-05-01T03:38:37;101833.72;;;7.95;70.73
31062;BME280;17724;53.546;9.974;2023-05-01T03:42:43;101838.88;;;8.23;69.75
31062;BME280;17724;53.546;9.974;2023-05-01T03:46:52;101832.78;;;8.14;70.05
31062;BME280;17724;53.546;9.974;2023-05-01T03:50:57;101822.63;;;8.22;69.83
31062;BME280;17724;53.546;9.974;2023-05-01T03:54:58;101826.47;;;8.14;71.13
31062;BME280;17724;53.546;9.974;2023-05-01T03:59:13;101825.16;;;8.23;69.56
31062;BME280;17724;53.546;9.974;2023-05-01T04:03:14;101812.19;;;8.50;69.97
31062;BME280;17724;53.546;9.974;2023-05-01T04:07:17;101814.72;;;8.52;68.52
31062;BME280;17724;53.546;9.974;2023-05-01T04:11:19;101805.72;;;8.31;69.05
31062;BME280;17724;53.546;9.974;2023-05-01T04:15:20;101806.22;;;8.60;68.35
31062;BME280;17724;53.546;9.974;2023-05-01T04:19:22;101800.75;;;8.60;68.41
31062;BME280;17724;53.546;9.974;2023-05-01T04:23:28;101802.75;;;8.46;68.16
31062;BME280;17724;53.546;9.974;2023-05-01T04:27:32;101807.75;;;8.49;68.21
31062;BME280;17724;53.546;9.974;2023-05-01T04:31:32;101793.78;;;8.57;67.30
31062;BME280;17724;53.546;9.974;2023-05-01T04:35:34;101796.28;;;8.21;68.67
31062;BME280;17724;53.546;9.974;2023-05-01T04:39:35;101777.06;;;8.27;70.06
31062;BME280;17724;53.546;9.974;2023-05-01T04:43:36;101795.16;;;8.35;69.76
31062;BME280;17724;53.546;9.974;2023-05-01T04:47:36;101782.31;;;8.42;70.18
31062;BME280;17724;53.546;9.974;2023-05-01T04:51:37;101785.94;;;8.68;69.19
31062;BME280;17724;53.546;9.974;2023-05-01T04:55:38;101783.53;;;8.46;69.33
31062;BME280;17724;53.546;9.974;2023-05-01T04:59:45;101787.38;;;8.32;70.40
31062;BME280;17724;53.546;9.974;2023-05-01T05:03:47;101781.16;;;8.56;68.95
31062;BME280;17724;53.546;9.974;2023-05-01T05:07:48;101795.16;;;8.73;68.93
31062;BME280;17724;53.546;9.974;2023-05-01T05:12:03;101787.72;;;8.49;68.84
31062;BME280;17724;53.546;9.974;2023-05-01T05:16:05;101792.13;;;8.56;68.48
31062;BME280;17724;53.546;9.974;2023-05-01T05:20:06;101789.03;;;8.46;69.44
31062;BME280;17724;53.546;9.974;2023-05-01T05:24:07;101784.97;;;8.55;70.89
31062;BME280;17724;53.546;9.974;2023-05-01T05:28:07;101782.91;;;8.76;69.91
31062;BME280;17724;53.546;9.974;2023-05-01T05:32:08;101785.50;;;8.71;69.30
31062;BME280;17724;53.546;9.974;2023-05-01T05:36:09;101774.91;;;8.74;70.11
31062;BME280;17724;53.546;9.974;2023-05-01T05:40:14;101776.06;;;8.85;70.09
31062;BME280;17724;53.546;9.974;2023-05-01T05:44:26;101772.91;;;8.88;69.44
31062;BME280;17724;53.546;9.974;2023-05-01T05:48:26;101781.13;;;8.88;69.46
31062;BME280;17724;53.546;9.974;2023-05-01T05:52:27;101770.94;;;8.95;69.42
31062;BME280;17724;53.546;9.974;2023-05-01T05:56:29;101774.13;;;8.92;68.45
31062;BME280;17724;53.546;9.974;2023-05-01T06:00:30;101758.94;;;8.64;68.34
31062;BME280;17724;53.546;9.974;2023-05-01T06:04:34;101766.09;;;8.66;69.62
31062;BME280;17724;53.546;9.974;2023-05-01T06:08:37;101764.63;;;8.95;69.11
31062;BME280;17724;53.546;9.974;2023-05-01T06:12:39;101741.50;;;8.84;69.49
31062;BME280;17724;53.546;9.974;2023-05-01T06:16:41;101749.16;;;9.00;68.56
31062;BME280;17724;53.546;9.974;2023-05-01T06:20:42;101750.81;;;9.26;68.42
31062;BME280;17724;53.546;9.974;2023-05-01T06:24:43;101754.47;;;9.20;67.40
31062;BME280;17724;53.546;9.974;2023-05-01T06:28:44;101750.59;;;9.28;67.66
31062;BME280;17724;53.546;9.974;2023-05-01T06:32:45;101744.66;;;9.31;67.74
31062;BME280;17724;53.546;9.974;2023-05-01T06:36:46;101743.66;;;9.44;67.21
31062;BME280;17724;53.546;9.974;2023-05-01T06:40:48;101738.16;;;9.80;66.00
31062;BME280;17724;53.546;9.974;2023-05-01T06:44:48;101735.97;;;9.71;65.66
31062;BME280;17724;53.546;9.974;2023-05-01T06:48:49;101727.84;;;9.94;65.86
31062;BME280;17724;53.546;9.974;2023-05-01T06:52:49;101726.25;;;9.86;64.96
31062;BME280;17724;53.546;9.974;2023-05-01T06:56:50;101723.72;;;10.03;64.37
31062;BME280;17724;53.546;9.974;2023-05-01T07:00:53;101725.31;;;10.41;63.92
31062;BME280;17724;53.546;9.974;2023-05-01T07:04:54;101718.81;;;10.77;61.51
31062;BME280;17724;53.546;9.974;2023-05-01T07:08:55;101730.09;;;11.23;58.54
31062;BME280;17724;53.546;9.974;2023-05-01T07:12:56;101712.91;;;11.56;58.52
31062;BME280;17724;53.546;9.974;2023-05-01T07:16:57;101711.84;;;12.09;56.05
31062;BME280;17724;53.546;9.974;2023-05-01T07:20:57;101692.16;;;12.34;54.43
31062;BME280;17724;53.546;9.974;2023-05-01T07:24:58;101689.50;;;13.06;54.11
31062;BME280;17724;53.546;9.974;2023-05-01T07:29:00;101700.56;;;13.67;51.75
31062;BME280;17724;53.546;9.974;2023-05-01T07:33:01;101684.81;;;12.56;52.92
31062;BME280;17724;53.546;9.974;2023-05-01T07:37:01;101688.19;;;12.58;53.79
31062;BME280;17724;53.546;9.974;2023-05-01T07:41:04;101669.34;;;12.55;53.39
31062;BME280;17724;53.546;9.974;2023-05-01T07:45:05;101661.97;;;13.28;51.87
31062;BME280;17724;53.546;9.974;2023-05-01T07:49:09;101667.66;;;13.44;51.37
31062;BME280;17724;53.546;9.974;2023-05-01T07:53:09;101662.94;;;13.22;50.93
31062;BME280;17724;53.546;9.974;2023-05-01T07:57:10;101647.44;;;13.21;51.17
31062;BME280;17724;53.546;9.974;2023-05-01T08:01:11;101658.41;;;13.55;50.63
31062;BME280;17724;53.546;9.974;2023-05-01T08:05:11;101659.69;;;13.25;50.14
31062;BME280;17724;53.546;9.974;2023-05-01T08:09:12;101655.06;;;13.75;49.78
31062;BME280;17724;53.546;9.974;2023-05-01T08:13:13;101646.78;;;13.53;48.71
31062;BME280;17724;53.546;9.974;2023-05-01T08:17:13;101649.09;;;13.61;48.60
31062;BME280;17724;53.546;9.974;2023-05-01T08:21:14;101647.03;;;13.73;48.64
31062;BME280;17724;53.546;9.974;2023-05-01T08:25:15;101637.31;;;13.71;48.88
31062;BME280;17724;53.546;9.974;2023-05-01T08:29:15;101633.03;;;13.36;49.50
31062;BME280;17724;53.546;9.974;2023-05-01T08:33:16;101635.41;;;13.98;48.72
31062;BME280;17724;53.546;9.974;2023-05-01T08:37:16;101630.41;;;14.27;48.77
31062;BME280;17724;53.546;9.974;2023-05-01T08:41:20;101625.91;;;14.48;47.56
31062;BME280;17724;53.546;9.974;2023-05-01T08:45:22;101625.06;;;14.80;47.61
31062;BME280;17724;53.546;9.974;2023-05-01T08:49:24;101621.00;;;14.93;46.94
31062;BME280;17724;53.546;9.974;2023-05-01T08:53:27;101622.44;;;15.00;46.08
31062;BME280;17724;53.546;9.974;2023-05-01T08:57:29;101610.66;;;15.31;46.01
31062;BME280;17724;53.546;9.974;2023-05-01T09:01:32;101614.19;;;15.73;45.56
31062;BME280;17724;53.546;9.974;2023-05-01T09:05:33;101603.69;;;16.01;44.06
31062;BME280;17724;53.546;9.974;2023-05-01T09:09:33;101597.59;;;16.04;43.32
31062;BME280;17724;53.546;9.974;2023-05-01T09:13:34;101593.16;;;16.23;43.51
31062;BME280;17724;53.546;9.974;2023-05-01T09:17:35;101586.78;;;16.23;43.28
31062;BME280;17724;53.546;9.974;2023-05-01T09:21:36;101572.06;;;16.38;42.03
31062;BME280;17724;53.546;9.974;2023-05-01T09:25:36;101578.16;;;16.60;42.26
31062;BME280;17724;53.546;9.974;2023-05-01T09:29:39;101564.28;;;16.60;42.01
31062;BME280;17724;53.546;9.974;2023-05-01T09:33:50;101568.44;;;16.78;41.60
31062;BME280;17724;53.546;9.974;2023-05-01T09:37:52;101558.44;;;16.51;42.07
31062;BME280;17724;53.546;9.974;2023-05-01T09:41:52;101566.78;;;16.57;41.57
31062;BME280;17724;53.546;9.974;2023-05-01T09:46:05;101556.97;;;16.95;41.51
31062;BME280;17724;53.546;9.974;2023-05-01T09:50:06;101558.00;;;17.24;40.62
31062;BME280;17724;53.546;9.974;2023-05-01T09:54:17;101549.28;;;16.51;41.13
31062;BME280;17724;53.546;9.974;2023-05-01T09:58:27;101547.03;;;16.79;40.15
31062;BME280;17724;53.546;9.974;2023-05-01T10:02:28;101551.28;;;17.36;39.90
31062;BME280;17724;53.546;9.974;2023-05-01T10:06:30;101538.34;;;17.06;39.73
31062;BME280;17724;53.546;9.974;2023-05-01T10:10:31;101537.41;;;18.14;40.15
31062;BME280;17724;53.546;9.974;2023-05-01T10:14:31;101535.50;;;18.39;39.46
31062;BME280;17724;53.546;9.974;2023-05-01T10:18:37;101534.34;;;18.16;37.85
31062;BME280;17724;53.546;9.974;2023-05-01T10:22:39;101532.63;;;19.02;37.30
31062;BME280;17724;53.546;9.974;2023-05-01T10:26:40;101518.91;;;18.58;37.88
31062;BME280;17724;53.546;9.974;2023-05-01T10:30:44;101519.56;;;19.22;36.44
31062;BME280;17724;53.546;9.974;2023-05-01T10:34:57;101511.00;;;19.56;34.05
31062;BME280;17724;53.546;9.974;2023-05-01T10:38:59;101503.09;;;19.01;33.59
31062;BME280;17724;53.546;9.974;2023-05-01T10:43:17;101485.63;;;18.66;35.00
31062;BME280;17724;53.546;9.974;2023-05-01T10:51:27;101483.69;;;18.91;35.64
31062;BME280;17724;53.546;9.974;2023-05-01T10:55:35;101477.81;;;18.44;35.51
31062;BME280;17724;53.546;9.974;2023-05-01T11:04:07;101460.97;;;18.84;35.60
31062;BME280;17724;53.546;9.974;2023-05-01T11:08:34;101456.78;;;18.33;35.89
31062;BME280;17724;53.546;9.974;2023-05-01T11:16:47;101444.78;;;17.80;35.22
31062;BME280;17724;53.546;9.974;2023-05-01T11:20:48;101444.78;;;18.09;35.33
31062;BME280;17724;53.546;9.974;2023-05-01T11:24:49;101436.94;;;18.40;36.25
31062;BME280;17724;53.546;9.974;2023-05-01T11:28:53;101435.63;;;18.56;36.50
31062;BME280;17724;53.546;9.974;2023-05-01T11:32:54;101440.31;;;18.85;35.86
31062;BME280;17724;53.546;9.974;2023-05-01T11:36:55;101419.91;;;18.65;34.58
31062;BME280;17724;53.546;9.974;2023-05-01T11:40:57;101411.97;;;18.54;34.13
31062;BME280;17724;53.546;9.974;2023-05-01T11:45:07;101404.59;;;18.63;35.20
31062;BME280;17724;53.546;9.974;2023-05-01T11:49:10;101402.06;;;18.90;34.58
31062;BME280;17724;53.546;9.974;2023-05-01T11:53:12;101403.91;;;19.19;34.73
31062;BME280;17724;53.546;9.974;2023-05-01T11:57:16;101394.75;;;19.51;34.39
31062;BME280;17724;53.546;9.974;2023-05-01T12:01:19;101390.19;;;19.04;33.04
31062;BME280;17724;53.546;9.974;2023-05-01T12:05:20;101382.94;;;18.84;33.51
31062;BME280;17724;53.546;9.974;2023-05-01T12:09:24;101378.25;;;18.98;33.88
31062;BME280;17724;53.546;9.974;2023-05-01T12:13:26;101373.94;;;18.87;34.18
31062;BME280;17724;53.546;9.974;2023-05-01T12:17:27;101371.34;;;18.95;35.15
31062;BME280;17724;53.546;9.974;2023-05-01T12:21:29;101368.59;;;18.72;34.44
31062;BME280;17724;53.546;9.974;2023-05-01T12:25:32;101363.00;;;18.29;34.54
31062;BME280;17724;53.546;9.974;2023-05-01T12:29:39;101357.75;;;18.70;33.68
31062;BME280;17724;53.546;9.974;2023-05-01T12:33:59;101368.84;;;18.75;33.77
31062;BME280;17724;53.546;9.974;2023-05-01T12:38:18;101366.66;;;18.48;34.46
31062;BME280;17724;53.546;9.974;2023-05-01T12:42:19;101355.13;;;18.79;34.38
31062;BME280;17724;53.546;9.974;2023-05-01T12:46:20;101350.16;;;19.13;34.40
31062;BME280;17724;53.546;9.974;2023-05-01T12:50:22;101337.63;;;19.11;35.04
31062;BME280;17724;53.546;9.974;2023-05-01T12:54:30;101321.72;;;19.30;34.65
31062;BME280;17724;53.546;9.974;2023-05-01T12:58:40;101330.16;;;19.25;33.96
31062;BME280;17724;53.546;9.974;2023-05-01T13:02:43;101337.91;;;19.47;34.04
31062;BME280;17724;53.546;9.974;2023-05-01T13:06:47;101326.00;;;19.41;33.90
31062;BME280;17724;53.546;9.974;2023-05-01T13:10:49;101329.22;;;19.49;33.99
31062;BME280;17724;53.546;9.974;2023-05-01T13:14:49;101322.28;;;19.79;34.57
31062;BME280;17724;53.546;9.974;2023-05-01T13:18:51;101322.19;;;19.84;34.53
31062;BME280;17724;53.546;9.974;2023-05-01T13:22:55;101316.06;;;19.68;35.17
31062;BME280;17724;53.546;9.974;2023-05-01T13:26:59;101320.84;;;19.81;33.56
31062;BME280;17724;53.546;9.974;2023-05-01T13:31:00;101311.31;;;19.68;33.84
31062;BME280;17724;53.546;9.974;2023-05-01T13:35:01;101312.84;;;19.75;34.49
31062;BME280;17724;53.546;9.974;2023-05-01T13:39:02;101310.31;;;19.92;34.42
31062;BME280;17724;53.546;9.974;2023-05-01T13:43:02;101304.00;;;20.00;34.68
31062;BME280;17724;53.546;9.974;2023-05-01T13:47:03;101297.88;;;19.71;33.21
31062;BME280;17724;53.546;9.974;2023-05-01T13:51:03;101300.88;;;19.74;34.89
31062;BME280;17724;53.546;9.974;2023-05-01T13:55:05;101287.13;;;19.64;34.12
31062;BME280;17724;53.546;9.974;2023-05-01T13:59:07;101296.22;;;19.69;34.70
31062;BME280;17724;53.546;9.974;2023-05-01T14:03:09;101296.31;;;19.64;34.12
31062;BME280;17724;53.546;9.974;2023-05-01T14:07:20;101295.94;;;19.71;33.77
31062;BME280;17724;53.546;9.974;2023-05-01T14:11:21;101289.72;;;19.74;34.51
31062;BME280;17724;53.546;9.974;2023-05-01T14:15:21;101286.34;;;19.91;35.15
31062;BME280;17724;53.546;9.974;2023-05-01T14:19:23;101287.53;;;19.99;35.79
31062;BME280;17724;53.546;9.974;2023-05-01T14:23:24;101287.97;;;19.92;35.81
31062;BME280;17724;53.546;9.974;2023-05-01T14:27:25;101281.97;;;19.99;35.30
31062;BME280;17724;53.546;9.974;2023-05-01T14:31:27;101284.75;;;20.26;35.48
31062;BME280;17724;53.546;9.974;2023-05-01T14:35:28;101274.94;;;20.15;36.24
31062;BME280;17724;53.546;9.974;2023-05-01T14:39:31;101266.34;;;20.25;36.41
31062;BME280;17724;53.546;9.974;2023-05-01T14:43:32;101273.94;;;20.11;35.21
31062;BME280;17724;53.546;9.974;2023-05-01T14:47:34;101264.16;;;20.22;36.64
31062;BME280;17724;53.546;9.974;2023-05-01T14:51:34;101269.53;;;20.32;36.03
31062;BME280;17724;53.546;9.974;2023-05-01T14:55:35;101251.97;;;20.32;35.70
31062;BME280;17724;53.546;9.974;2023-05-01T14:59:35;101262.09;;;20.28;35.62
31062;BME280;17724;53.546;9.974;2023-05-01T15:03:36;101259.94;;;20.25;36.58
31062;BME280;17724;53.546;9.974;2023-05-01T15:07:39;101252.09;;;20.13;37.26
31062;BME280;17724;53.546;9.974;2023-05-01T15:11:41;101247.88;;;19.88;37.14
31062;BME280;17724;53.546;9.974;2023-05-01T15:15:41;101242.78;;;19.90;38.25
31062;BME280;17724;53.546;9.974;2023-05-01T15:19:42;101242.06;;;19.84;38.59
31062;BME280;17724;53.546;9.974;2023-05-01T15:23:42;101250.78;;;19.83;38.96
31062;BME280;17724;53.546;9.974;2023-05-01T15:27:44;101252.00;;;19.63;37.88
31062;BME280;17724;53.546;9.974;2023-05-01T15:31:45;101246.16;;;19.59;38.22
31062;BME280;17724;53.546;9.974;2023-05-01T15:35:46;101250.72;;;19.55;39.23
31062;BME280;17724;53.546;9.974;2023-05-01T15:39:49;101252.34;;;19.56;38.27
31062;BME280;17724;53.546;9.974;2023-05-01T15:43:51;101255.09;;;19.75;38.87
31062;BME280;17724;53.546;9.974;2023-05-01T15:47:52;101257.06;;;19.88;38.40
31062;BME280;17724;53.546;9.974;2023-05-01T15:51:52;101254.06;;;19.85;38.58
31062;BME280;17724;53.546;9.974;2023-05-01T15:55:55;101247.13;;;19.82;40.44
31062;BME280;17724;53.546;9.974;2023-05-01T15:59:57;101249.19;;;19.90;39.73
31062;BME280;17724;53.546;9.974;2023-05-01T16:03:57;101255.94;;;19.76;40.33
31062;BME280;17724;53.546;9.974;2023-05-01T16:07:59;101256.22;;;19.74;40.36
31062;BME280;17724;53.546;9.974;2023-05-01T16:12:01;101249.31;;;19.72;40.36
31062;BME280;17724;53.546;9.974;2023-05-01T16:16:02;101258.00;;;19.37;39.80
31062;BME280;17724;53.546;9.974;2023-05-01T16:20:08;101246.72;;;19.61;41.00
31062;BME280;17724;53.546;9.974;2023-05-01T16:24:10;101249.91;;;19.68;40.80
31062;BME280;17724;53.546;9.974;2023-05-01T16:28:11;101243.53;;;19.68;40.60
31062;BME280;17724;53.546;9.974;2023-05-01T16:32:15;101255.50;;;19.68;41.87
31062;BME280;17724;53.546;9.974;2023-05-01T16:36:16;101249.75;;;19.46;41.64
31062;BME280;17724;53.546;9.974;2023-05-01T16:40:17;101249.03;;;19.40;41.35
31062;BME280;17724;53.546;9.974;2023-05-01T16:44:19;101249.63;;;19.37;42.96
31062;BME280;17724;53.546;9.974;2023-05-01T16:48:22;101250.56;;;19.33;42.68
31062;BME280;17724;53.546;9.974;2023-05-01T16:52:23;101244.50;;;19.44;42.49
31062;BME280;17724;53.546;9.974;2023-05-01T16:56:23;101253.69;;;19.45;42.94
31062;BME280;17724;53.546;9.974;2023-05-01T17:00:24;101251.78;;;18.94;42.74
31062;BME280;17724;53.546;9.974;2023-05-01T17:04:28;101247.19;;;18.84;43.36
31062;BME280;17724;53.546;9.974;2023-05-01T17:08:29;101259.16;;;19.04;43.77
31062;BME280;17724;53.546;9.974;2023-05-01T17:12:29;101252.00;;;18.79;44.83
31062;BME280;17724;53.546;9.974;2023-05-01T17:16:31;101246.03;;;18.66;45.51
31062;BME280;17724;53.546;9.974;2023-05-01T17:20:32;101257.91;;;18.77;45.35
31062;BME280;17724;53.546;9.974;2023-05-01T17:24:34;101253.66;;;18.61;43.52
31062;BME280;17724;53.546;9.974;2023-05-01T17:28:35;101265.09;;;18.40;45.37
31062;BME280;17724;53.546;9.974;2023-05-01T17:32:35;101261.38;;;18.26;44.89
31062;BME280;17724;53.546;9.974;2023-05-01T17:36:36;101265.81;;;18.08;44.79
31062;BME280;17724;53.546;9.974;2023-05-01T17:40:37;101281.69;;;18.08;45.23
31062;BME280;17724;53.546;9.974;2023-05-01T17:44:37;101286.59;;;17.92;45.75
31062;BME280;17724;53.546;9.974;2023-05-01T17:48:39;101292.16;;;17.92;45.18
31062;BME280;17724;53.546;9.974;2023-05-01T17:52:41;101300.84;;;17.56;46.12
31062;BME280;17724;53.546;9.974;2023-05-01T17:56:45;101304.34;;;17.38;45.77
31062;BME280;17724;53.546;9.974;2023-05-01T18:00:46;101316.47;;;17.52;47.31
31062;BME280;17724;53.546;9.974;2023-05-01T18:04:47;101311.47;;;17.49;46.29
31062;BME280;17724;53.546;9.974;2023-05-01T18:08:49;101322.28;;;17.21;45.20
31062;BME280;17724;53.546;9.974;2023-05-01T18:12:49;101317.03;;;17.20;46.33
31062;BME280;17724;53.546;9.974;2023-05-01T18:16:50;101318.09;;;17.24;45.84
31062;BME280;17724;53.546;9.974;2023-05-01T18:20:54;101320.09;;;17.18;45.65
31062;BME280;17724;53.546;9.974;2023-05-01T18:24:55;101323.94;;;17.22;45.90
31062;BME280;17724;53.546;9.974;2023-05-01T18:28:56;101319.34;;;17.08;46.18
31062;BME280;17724;53.546;9.974;2023-05-01T18:32:56;101321.72;;;17.19;45.82
31062;BME280;17724;53.546;9.974;2023-05-01T18:36:57;101322.88;;;17.18;45.29
31062;BME280;17724;53.546;9.974;2023-05-01T18:40:58;101326.00;;;17.07;44.22
31062;BME280;17724;53.546;9.974;2023-05-01T18:44:58;101336.03;;;17.08;44.59
31062;BME280;17724;53.546;9.974;2023-05-01T18:48:59;101335.31;;;16.92;45.15
31062;BME280;17724;53.546;9.974;2023-05-01T18:53:00;101336.75;;;16.79;44.07
31062;BME280;17724;53.546;9.974;2023-05-01T18:57:00;101343.69;;;16.82;43.12
31062;BME280;17724;53.546;9.974;2023-05-01T19:01:01;101349.38;;;16.51;42.11
31062;BME280;17724;53.546;9.974;2023-05-01T19:05:02;101346.44;;;16.22;42.60
31062;BME280;17724;53.546;9.974;2023-05-01T19:09:02;101354.94;;;16.46;44.05
31062;BME280;17724;53.546;9.974;2023-05-01T19:13:04;101340.81;;;16.42;43.85
31062;BME280;17724;53.546;9.974;2023-05-01T19:17:06;101351.09;;;16.37;44.28
31062;BME280;17724;53.546;9.974;2023-05-01T19:21:06;101346.72;;;16.15;44.75
31062;BME280;17724;53.546;9.974;2023-05-01T19:25:07;101363.38;;;16.15;45.16
31062;BME280;17724;53.546;9.974;2023-05-01T19:29:08;101368.41;;;16.08;45.30
31062;BME280;17724;53.546;9.974;2023-05-01T19:33:09;101362.84;;;16.03;44.86
31062;BME280;17724;53.546;9.974;2023-05-01T19:37:09;101365.66;;;15.88;45.56
31062;BME280;17724;53.546;9.974;2023-05-01T19:41:11;101368.75;;;15.81;46.09
31062;BME280;17724;53.546;9.974;2023-05-01T19:45:12;101359.03;;;15.73;46.43
31062;BME280;17724;53.546;9.974;2023-05-01T19:49:13;101372.91;;;15.73;46.41
31062;BME280;17724;53.546;9.974;2023-05-01T19:53:13;101372.06;;;15.58;47.40
31062;BME280;17724;53.546;9.974;2023-05-01T19:57:14;101386.22;;;15.56;48.15
31062;BME280;17724;53.546;9.974;2023-05-01T20:01:15;101386.75;;;15.53;48.03
31062;BME280;17724;53.546;9.974;2023-05-01T20:05:16;101385.09;;;15.42;48.30
31062;BME280;17724;53.546;9.974;2023-05-01T20:09:16;101387.84;;;15.42;48.45
31062;BME280;17724;53.546;9.974;2023-05-01T20:13:17;101394.78;;;15.34;48.91
31062;BME280;17724;53.546;9.974;2023-05-01T20:17:18;101401.72;;;15.37;49.58
31062;BME280;17724;53.546;9.974;2023-05-01T20:21:18;101388.13;;;15.45;49.66
31062;BME280;17724;53.546;9.974;2023-05-01T20:25:19;101389.50;;;15.22;49.75
31062;BME280;17724;53.546;9.974;2023-05-01T20:29:20;101408.34;;;15.31;50.35
31062;BME280;17724;53.546;9.974;2023-05-01T20:33:21;101413.88;;;15.15;51.76
31062;BME280;17724;53.546;9.974;2023-05-01T20:37:21;101420.81;;;15.23;51.44
31062;BME280;17724;53.546;9.974;2023-05-01T20:41:23;101419.94;;;15.07;52.64
31062;BME280;17724;53.546;9.974;2023-05-01T20:45:27;101420.28;;;15.21;53.33
31062;BME280;17724;53.546;9.974;2023-05-01T20:49:28;101419.16;;;15.22;54.30
31062;BME280;17724;53.546;9.974;2023-05-01T20:53:29;101423.28;;;15.14;53.76
31062;BME280;17724;53.546;9.974;2023-05-01T20:57:31;101422.41;;;14.98;53.98
31062;BME280;17724;53.546;9.974;2023-05-01T21:01:32;101423.53;;;14.97;53.67
31062;BME280;17724;53.546;9.974;2023-05-01T21:05:32;101426.53;;;14.81;54.67
31062;BME280;17724;53.546;9.974;2023-05-01T21:09:33;101432.59;;;14.72;53.84
31062;BME280;17724;53.546;9.974;2023-05-01T21:13:34;101437.28;;;14.72;53.11
31062;BME280;17724;53.546;9.974;2023-05-01T21:17:35;101440.09;;;14.77;53.26
31062;BME280;17724;53.546;9.974;2023-05-01T21:21:37;101434.66;;;14.45;53.58
31062;BME280;17724;53.546;9.974;2023-05-01T21:25:37;101443.50;;;14.47;53.95
31062;BME280;17724;53.546;9.974;2023-05-01T21:29:39;101446.53;;;14.45;53.49
31062;BME280;17724;53.546;9.974;2023-05-01T21:33:42;101445.31;;;14.26;53.25
31062;BME280;17724;53.546;9.974;2023-05-01T21:37:44;101443.53;;;14.04;54.01
31062;BME280;17724;53.546;9.974;2023-05-01T21:41:46;101449.13;;;14.20;54.49